createdAt,value
2023-04-07T00:02:48.903Z,8.18
2023-04-07T00:07:56.584Z,9.30
2023-04-07T00:12:59.113Z,11.88
2023-04-07T00:18:00.896Z,7.75
2023-04-07T00:23:02.520Z,10.98
2023-04-07T00:28:04.376Z,11.88
2023-04-07T00:33:09.558Z,9.80
2023-04-07T00:38:11.877Z,11.18
2023-04-07T00:43:13.573Z,9.63
2023-04-07T00:48:15.312Z,11.32
2023-04-07T00:53:17.131Z,12.38
2023-04-07T00:58:18.996Z,12.43
2023-04-07T01:03:30.768Z,9.98
2023-04-07T01:08:48.380Z,11.60
2023-04-07T01:13:51.451Z,11.52
2023-04-07T01:19:27.215Z,10.85
2023-04-07T01:25:02.945Z,12.20
2023-04-07T01:30:10.484Z,11.05
2023-04-07T01:35:14.450Z,9.50
2023-04-07T01:40:16.695Z,9.68
2023-04-07T01:45:20.493Z,9.43
2023-04-07T01:50:22.847Z,12.88
2023-04-07T01:55:25.284Z,10.50
2023-04-07T02:00:36.331Z,7.15
2023-04-07T02:05:43.233Z,7.22
2023-04-07T02:10:48.364Z,9.50
2023-04-07T02:15:52.379Z,9.70
2023-04-07T02:20:56.402Z,11.57
2023-04-07T02:25:58.287Z,5.57
2023-04-07T02:30:59.913Z,10.38
2023-04-07T02:36:01.601Z,7.38
2023-04-07T02:41:03.278Z,6.40
2023-04-07T02:46:04.936Z,8.07
2023-04-07T02:51:06.528Z,6.60
2023-04-07T02:56:08.228Z,8.75
2023-04-07T03:01:09.945Z,8.40
2023-04-07T03:06:11.750Z,5.85
2023-04-07T03:11:23.580Z,4.25
2023-04-07T03:16:25.880Z,7.50
2023-04-07T03:21:37.421Z,4.72
2023-04-07T03:26:39.389Z,4.78
2023-04-07T03:31:48.831Z,3.08
2023-04-07T03:36:53.566Z,8.75
2023-04-07T03:41:56.579Z,4.50
2023-04-07T03:47:01.350Z,7.25
2023-04-07T03:52:05.451Z,7.30
2023-04-07T03:57:08.337Z,7.57
2023-04-07T04:02:16.504Z,7.05
2023-04-07T04:07:19.154Z,5.93
2023-04-07T04:12:24.927Z,8.13
2023-04-07T04:17:38.706Z,4.97
2023-04-07T04:22:40.860Z,4.82
2023-04-07T04:27:42.612Z,4.60
2023-04-07T04:32:51.885Z,4.17
2023-04-07T04:37:59.400Z,8.95
2023-04-07T04:43:02.207Z,8.38
2023-04-07T04:48:06.398Z,5.32
2023-04-07T04:53:08.132Z,8.55
2023-04-07T04:58:10.799Z,7.00
2023-04-07T05:03:21.585Z,5.25
2023-04-07T05:08:25.942Z,6.72
2023-04-07T05:13:30.723Z,11.50
2023-04-07T05:18:35.353Z,6.72
2023-04-07T05:23:38.679Z,6.90
2023-04-07T05:28:41.563Z,8.15
2023-04-07T05:33:50.089Z,4.05
2023-04-07T05:38:52.364Z,10.07
2023-04-07T05:43:54.339Z,11.88
2023-04-07T05:48:56.658Z,8.57
2023-04-07T05:54:05.588Z,9.43
2023-04-07T05:59:07.267Z,9.55
2023-04-07T06:04:08.941Z,6.75
2023-04-07T06:09:10.793Z,10.60
2023-04-07T06:14:12.572Z,8.52
2023-04-07T06:19:14.250Z,7.93
2023-04-07T06:24:15.884Z,5.82
2023-04-07T06:29:17.578Z,6.53
2023-04-07T06:34:20.002Z,5.80
2023-04-07T06:39:21.776Z,6.88
2023-04-07T06:44:23.629Z,6.57
2023-04-07T06:49:25.666Z,7.70
2023-04-07T06:54:27.372Z,9.98
2023-04-07T06:59:29.249Z,3.88
2023-04-07T07:04:30.958Z,4.60
2023-04-07T07:09:32.702Z,5.32
2023-04-07T07:14:35.720Z,4.85
2023-04-07T07:19:37.497Z,10.48
2023-04-07T07:24:39.139Z,7.00
2023-04-07T07:29:41.446Z,11.63
2023-04-07T07:34:43.092Z,13.32
2023-04-07T07:39:44.932Z,8.27
2023-04-07T07:44:46.658Z,15.98
2023-04-07T07:49:48.788Z,8.38
2023-04-07T07:54:51.249Z,8.02
2023-04-07T07:59:53.488Z,10.65
2023-04-07T08:04:55.338Z,9.20
2023-04-07T08:09:56.965Z,9.52
2023-04-07T08:14:58.628Z,11.57
2023-04-07T08:20:01.274Z,10.73
2023-04-07T08:25:03.311Z,8.82
2023-04-07T08:30:08.950Z,7.53
2023-04-07T08:35:11.574Z,6.97
2023-04-07T08:40:13.646Z,3.70
2023-04-07T08:45:17.179Z,8.10
2023-04-07T08:50:19.766Z,5.80
2023-04-07T08:55:21.629Z,7.72
2023-04-07T09:00:23.889Z,6.00
2023-04-07T09:05:26.022Z,6.53
2023-04-07T09:10:27.610Z,4.28
2023-04-07T09:15:31.823Z,10.48
2023-04-07T09:20:54.549Z,13.45
2023-04-07T09:25:56.212Z,9.38
2023-04-07T09:30:57.928Z,8.65
2023-04-07T09:35:59.838Z,9.75
2023-04-07T09:41:12.675Z,16.50
2023-04-07T09:46:17.526Z,12.45
2023-04-07T09:51:19.194Z,11.65
2023-04-07T09:56:24.740Z,9.25
2023-04-07T10:01:26.430Z,5.95
2023-04-07T10:06:28.298Z,8.07
2023-04-07T10:11:30.338Z,12.15
2023-04-07T10:16:32.388Z,11.63
2023-04-07T10:21:40.724Z,14.82
2023-04-07T10:26:42.902Z,8.82
2023-04-07T10:31:45.706Z,9.25
2023-04-07T10:37:13.759Z,12.65
2023-04-07T10:42:40.928Z,8.73
2023-04-07T10:48:00.866Z,10.18
2023-04-07T10:53:08.523Z,15.95
2023-04-07T10:58:23.441Z,11.38
2023-04-07T11:03:25.941Z,9.55
2023-04-07T11:08:53.830Z,13.90
2023-04-07T11:13:55.489Z,13.07
2023-04-07T11:18:57.476Z,11.43
2023-04-07T11:23:59.237Z,10.90
2023-04-07T11:29:01.849Z,12.35
2023-04-07T11:34:05.500Z,13.77
2023-04-07T11:39:20.438Z,12.10
2023-04-07T11:44:22.129Z,12.02
2023-04-07T11:49:25.498Z,10.50
2023-04-07T11:54:27.304Z,13.07
2023-04-07T11:59:29.180Z,10.65
2023-04-07T12:04:31.492Z,16.45
2023-04-07T12:09:36.193Z,11.52
2023-04-07T12:14:38.078Z,7.80
2023-04-07T12:19:39.894Z,13.38
2023-04-07T12:24:41.700Z,10.98
2023-04-07T12:29:44.056Z,16.15
2023-04-07T12:34:45.708Z,16.58
2023-04-07T12:39:47.328Z,12.90
2023-04-07T12:44:48.984Z,14.32
2023-04-07T12:49:51.160Z,15.10
2023-04-07T12:54:53.554Z,12.95
2023-04-07T12:59:55.207Z,14.65
2023-04-07T13:04:56.988Z,8.02
2023-04-07T13:09:58.644Z,10.35
2023-04-07T13:15:00.968Z,10.77
2023-04-07T13:20:04.301Z,8.65
2023-04-07T13:25:06.409Z,9.60
2023-04-07T13:30:08.453Z,8.63
2023-04-07T13:35:10.068Z,9.60
2023-04-07T13:40:12.772Z,9.98
2023-04-07T13:45:14.560Z,10.27
2023-04-07T13:50:16.136Z,9.07
2023-04-07T13:55:20.352Z,8.07
2023-04-07T14:00:22.056Z,10.63
2023-04-07T14:05:24.412Z,12.57
2023-04-07T14:10:26.292Z,13.25
2023-04-07T14:15:27.964Z,10.40
2023-04-07T14:20:29.752Z,9.27
2023-04-07T14:25:32.124Z,10.30
2023-04-07T14:30:38.438Z,5.93
2023-04-07T14:35:40.133Z,5.32
2023-04-07T14:40:41.919Z,9.48
2023-04-07T14:45:43.754Z,8.00
2023-04-07T14:50:46.121Z,5.63
2023-04-07T14:55:48.410Z,15.45
2023-04-07T15:00:50.116Z,4.53
2023-04-07T15:05:51.778Z,7.38
2023-04-07T15:10:53.443Z,8.65
2023-04-07T15:15:55.165Z,6.15
2023-04-07T15:20:56.801Z,4.68
2023-04-07T15:25:58.517Z,7.47
2023-04-07T15:31:01.292Z,5.15
2023-04-07T15:36:04.250Z,7.85
2023-04-07T15:41:06.443Z,4.75
2023-04-07T15:46:08.044Z,9.77
2023-04-07T15:51:09.820Z,10.57
2023-04-07T15:56:13.188Z,8.40
2023-04-07T16:01:15.553Z,10.23
2023-04-07T16:06:17.292Z,7.00
2023-04-07T16:11:18.929Z,10.98
2023-04-07T16:16:20.946Z,12.55
2023-04-07T16:21:22.626Z,11.80
2023-04-07T16:26:24.248Z,9.57
2023-04-07T16:31:25.990Z,13.32
2023-04-07T16:36:28.939Z,14.35
2023-04-07T16:41:30.575Z,14.20
2023-04-07T16:46:32.355Z,16.00
2023-04-07T16:51:34.126Z,12.77
2023-04-07T16:56:35.876Z,16.17
2023-04-07T17:01:41.992Z,14.25
2023-04-07T17:06:43.949Z,15.48
2023-04-07T17:11:45.668Z,17.20
2023-04-07T17:16:47.661Z,16.40
2023-04-07T17:21:49.387Z,18.20
2023-04-07T17:26:51.251Z,16.45
2023-04-07T17:31:52.832Z,16.60
2023-04-07T17:36:54.420Z,15.80
2023-04-07T17:41:56.534Z,17.95
2023-04-07T17:46:58.976Z,14.93
2023-04-07T17:52:00.581Z,19.50
2023-04-07T17:57:03.503Z,18.08
2023-04-07T18:02:09.168Z,17.50
2023-04-07T18:07:12.952Z,17.98
2023-04-07T18:12:14.656Z,17.80
2023-04-07T18:17:16.681Z,17.45
2023-04-07T18:22:18.725Z,23.73
2023-04-07T18:27:24.005Z,18.02
2023-04-07T18:32:25.871Z,19.63
2023-04-07T18:37:29.498Z,17.95
2023-04-07T18:42:31.251Z,23.77
2023-04-07T18:47:33.044Z,22.45
2023-04-07T18:52:34.698Z,25.20
2023-04-07T18:57:37.291Z,26.67
2023-04-07T19:02:44.339Z,20.40
2023-04-07T19:07:46.366Z,23.73
2023-04-07T19:12:48.054Z,20.80
2023-04-07T19:17:49.781Z,23.75
2023-04-07T19:22:51.545Z,23.55
2023-04-07T19:27:53.272Z,26.67
2023-04-07T19:32:55.295Z,21.42
2023-04-07T19:37:56.910Z,26.05
2023-04-07T19:42:58.711Z,27.58
2023-04-07T19:48:00.525Z,22.48
2023-04-07T19:53:02.192Z,29.50
2023-04-07T19:58:03.803Z,23.30
2023-04-07T20:03:06.469Z,25.50
2023-04-07T20:08:08.380Z,23.77
2023-04-07T20:13:10.472Z,22.60
2023-04-07T20:18:12.426Z,24.92
2023-04-07T20:23:16.071Z,27.48
2023-04-07T20:28:17.657Z,22.58
2023-04-07T20:33:19.914Z,22.33
2023-04-07T20:38:21.588Z,22.83
2023-04-07T20:43:23.834Z,19.55
2023-04-07T20:48:25.695Z,19.10
2023-04-07T20:53:27.549Z,23.00
2023-04-07T20:58:29.241Z,20.35
2023-04-07T21:03:31.151Z,17.85
2023-04-07T21:08:32.907Z,22.27
2023-04-07T21:13:34.497Z,20.13
2023-04-07T21:18:36.411Z,19.85
2023-04-07T21:23:37.946Z,17.73
2023-04-07T21:28:40.597Z,17.52
2023-04-07T21:33:42.232Z,17.63
2023-04-07T21:38:43.886Z,16.73
2023-04-07T21:43:46.037Z,18.33
2023-04-07T21:48:49.083Z,14.68
2023-04-07T21:53:50.900Z,16.00
2023-04-07T21:58:53.393Z,13.15
2023-04-07T22:03:55.061Z,19.83
2023-04-07T22:09:01.770Z,14.73
2023-04-07T22:14:04.047Z,15.85
2023-04-07T22:19:05.693Z,15.32
2023-04-07T22:24:07.287Z,16.70
2023-04-07T22:29:09.575Z,16.55
2023-04-07T22:34:11.370Z,19.05
2023-04-07T22:39:13.078Z,17.55
2023-04-07T22:44:14.733Z,21.83
2023-04-07T22:49:16.748Z,21.27
2023-04-07T22:54:18.333Z,20.15
2023-04-07T22:59:20.006Z,21.25
2023-04-07T23:04:21.659Z,17.27
2023-04-07T23:09:23.303Z,18.38
2023-04-07T23:14:24.903Z,18.00
2023-04-07T23:19:26.715Z,21.73
2023-04-07T23:24:28.327Z,20.77
2023-04-07T23:29:30.138Z,21.27
2023-04-07T23:34:31.759Z,23.13
2023-04-07T23:39:34.357Z,25.65
2023-04-07T23:44:36.171Z,26.23
2023-04-07T23:49:37.798Z,25.45
2023-04-07T23:54:39.481Z,27.58
2023-04-07T23:59:41.150Z,28.58
